Terminal Aerodrome Forecast
Issued by NWS Caribou, ME

Home | Current Version | Previous Version | Text Only | Print | Product List | Glossary On
Versions: 1 2 3 4 5 6 7 8 9 10 11 12 13 14 15
000
FTUS41 KCAR 290259 AAA
TAFBGR
TAF AMD
KBGR 290259Z 2903/2924 00000KT 4SM BR BKN006
     FM290800 00000KT 1/2SM FG BKN002
     FM291000 00000KT 3SM BR BKN004
     FM291200 04004KT P6SM BKN015
     FM291400 04006KT P6SM BKN050
     FM291800 00000KT 5SM -SHRA OVC060=

USA.gov is the U.S. government's official web portal to all federal, state and local government web resources and services.